Time;durP1;ratioP1;P1;durP2;ratioP2;P2;SDS_P1;SDS_P2;PMS_P1;PMS_P2;Temp;Humidity;BMP_temperature;BMP_pressure;BME280_temperature;BME280_humidity;BME280_pressure;Samples;Min_cycle;Max_cycle;Signal;HPM_P1;HPM_P2
2023/07/23 00:02:09;;;;;;;;;;;;;;;16.76;32.14;95140.97;4985066;28;20032;-77
2023/07/23 00:04:34;;;;;;;;;;;;;;;16.65;32.18;95147.91;5004477;28;19933;-69
2023/07/23 00:06:59;;;;;;;;;;;;;;;16.70;32.30;95142.69;5020544;28;20006;-67
2023/07/23 00:09:25;;;;;;;;;;;;;;;16.46;32.80;95150.66;5023520;28;20560;-68
2023/07/23 00:11:51;;;;;;;;;;;;;;;16.57;32.28;95148.25;5024700;28;19924;-67
2023/07/23 00:14:16;;;;;;;;;;;;;;;16.47;32.87;95143.41;5009300;28;19925;-68
2023/07/23 00:16:41;;;;;;;;;;;;;;;16.29;32.79;95152.31;5004727;28;19972;-69
2023/07/23 00:19:07;;;;;;;;;;;;;;;16.43;32.50;95139.53;5004037;28;20405;-67
2023/07/23 00:21:32;;;;;;;;;;;;;;;16.57;32.22;95135.63;5004436;28;19940;-67
2023/07/23 00:23:57;;;;;;;;;;;;;;;16.49;32.63;95131.38;5006131;28;19927;-67
2023/07/23 00:26:24;;;;;;;;;;;;;;;16.50;32.50;95134.91;5017487;28;19921;-68
2023/07/23 00:28:49;;;;;;;;;;;;;;;16.61;32.21;95123.38;5024898;28;20595;-68
2023/07/23 00:31:14;;;;;;;;;;;;;;;16.51;32.46;95134.69;5023333;28;20003;-67
2023/07/23 00:33:40;;;;;;;;;;;;;;;16.42;32.34;95127.16;5023793;28;20553;-68
2023/07/23 00:36:05;;;;;;;;;;;;;;;16.34;32.77;95123.72;5023951;28;19921;-68
2023/07/23 00:38:30;;;;;;;;;;;;;;;16.54;32.68;95124.50;5024176;28;19917;-68
2023/07/23 00:40:56;;;;;;;;;;;;;;;16.69;32.66;95119.53;5023666;28;20580;-69
2023/07/23 00:43:21;;;;;;;;;;;;;;;16.69;32.63;95116.06;5024403;28;19944;-67
2023/07/23 00:45:47;;;;;;;;;;;;;;;16.71;32.12;95117.47;5023410;28;19917;-67
2023/07/23 00:48:12;;;;;;;;;;;;;;;16.66;32.82;95117.34;5020973;28;19913;-68
2023/07/23 00:50:37;;;;;;;;;;;;;;;16.58;32.92;95109.56;5022961;28;20362;-68
2023/07/23 00:53:02;;;;;;;;;;;;;;;16.59;32.44;95111.22;5019173;28;20511;-68
2023/07/23 00:55:28;;;;;;;;;;;;;;;16.62;32.83;95110.75;5023596;28;19917;-68
2023/07/23 00:57:53;;;;;;;;;;;;;;;16.65;32.95;95104.91;5023110;28;19922;-68
2023/07/23 01:00:18;;;;;;;;;;;;;;;16.46;33.07;95098.81;5022933;28;19921;-68
2023/07/23 01:02:44;;;;;;;;;;;;;;;16.56;33.48;95099.06;5022339;28;19940;-68
2023/07/23 01:05:09;;;;;;;;;;;;;;;16.68;33.10;95101.78;5021215;28;19936;-67
2023/07/23 01:07:34;;;;;;;;;;;;;;;16.55;32.87;95096.63;5023345;28;20345;-67
2023/07/23 01:10:00;;;;;;;;;;;;;;;16.67;32.42;95094.78;5022989;28;19928;-68
2023/07/23 01:12:25;;;;;;;;;;;;;;;16.49;33.23;95096.47;5038634;28;19927;-68
2023/07/23 01:14:50;;;;;;;;;;;;;;;16.61;32.48;95090.31;5022817;28;19925;-67
2023/07/23 01:17:16;;;;;;;;;;;;;;;16.56;32.92;95093.72;5020760;28;19925;-68
2023/07/23 01:19:41;;;;;;;;;;;;;;;16.22;33.63;95096.00;5021358;28;19975;-68
2023/07/23 01:22:07;;;;;;;;;;;;;;;16.40;32.90;95089.78;5022737;28;19921;-67
2023/07/23 01:24:35;;;;;;;;;;;;;;;16.41;32.80;95096.78;5023525;28;20015;-69
2023/07/23 01:27:00;;;;;;;;;;;;;;;16.40;32.86;95084.41;5023041;28;19921;-68
2023/07/23 01:29:26;;;;;;;;;;;;;;;16.37;32.98;95082.19;5023253;28;19921;-67
2023/07/23 01:31:51;;;;;;;;;;;;;;;15.91;33.50;95095.94;5023370;28;19929;-69
2023/07/23 01:34:16;;;;;;;;;;;;;;;15.83;33.80;95085.50;5022249;28;19928;-68
2023/07/23 01:36:41;;;;;;;;;;;;;;;16.06;33.46;95084.84;5023268;28;19920;-67
2023/07/23 01:39:06;;;;;;;;;;;;;;;15.84;33.61;95077.25;5021660;28;19967;-68
2023/07/23 01:41:32;;;;;;;;;;;;;;;15.91;33.73;95074.47;5022835;28;19928;-68
2023/07/23 01:44:00;;;;;;;;;;;;;;;15.87;33.73;95071.44;5022036;28;19917;-68
2023/07/23 01:46:25;;;;;;;;;;;;;;;15.96;33.59;95076.50;5020882;28;19921;-67
2023/07/23 01:48:51;;;;;;;;;;;;;;;15.71;34.05;95075.53;5022815;28;19962;-69
2023/07/23 01:51:16;;;;;;;;;;;;;;;15.63;34.39;95070.47;5022254;28;19926;-67
2023/07/23 01:53:41;;;;;;;;;;;;;;;15.82;33.98;95068.63;5022653;28;20575;-67
2023/07/23 01:56:06;;;;;;;;;;;;;;;15.70;34.04;95059.66;5022259;28;20699;-67
2023/07/23 01:58:32;;;;;;;;;;;;;;;15.69;34.66;95061.53;5022258;28;20409;-68
2023/07/23 02:00:58;;;;;;;;;;;;;;;15.53;34.29;95054.06;5022107;28;20634;-67
2023/07/23 02:03:23;;;;;;;;;;;;;;;15.43;34.52;95060.75;5022618;28;20126;-68
2023/07/23 02:06:15;;;;;;;;;;;;;;;14.96;35.77;95059.34;5020413;28;19917;-68
2023/07/23 02:08:40;;;;;;;;;;;;;;;15.30;35.27;95050.97;5020520;28;20008;-69
2023/07/23 02:11:06;;;;;;;;;;;;;;;15.41;34.78;95051.28;5021511;28;19937;-68
2023/07/23 02:13:31;;;;;;;;;;;;;;;15.40;34.71;95050.47;5022367;28;19917;-69
2023/07/23 02:15:56;;;;;;;;;;;;;;;15.41;34.72;95048.59;5022079;28;19921;-67
2023/07/23 02:18:21;;;;;;;;;;;;;;;15.39;35.09;95048.00;5020146;28;20368;-68
2023/07/23 02:20:47;;;;;;;;;;;;;;;15.30;34.95;95044.81;5022113;28;19917;-68
2023/07/23 02:23:14;;;;;;;;;;;;;;;15.29;35.23;95035.09;5021770;28;19923;-67
2023/07/23 02:25:41;;;;;;;;;;;;;;;15.35;34.99;95048.47;5020976;28;19917;-69
2023/07/23 02:28:07;;;;;;;;;;;;;;;15.43;34.75;95041.16;5019978;28;19917;-69
2023/07/23 02:30:33;;;;;;;;;;;;;;;15.18;35.17;95042.03;5021499;28;19917;-67
2023/07/23 02:32:58;;;;;;;;;;;;;;;15.06;35.62;95047.31;5021746;28;20008;-68
2023/07/23 02:35:23;;;;;;;;;;;;;;;15.05;35.68;95048.31;5021987;28;19965;-68
2023/07/23 02:37:48;;;;;;;;;;;;;;;15.03;35.80;95035.16;5021997;28;19925;-67
2023/07/23 02:40:14;;;;;;;;;;;;;;;15.11;35.60;95036.72;5020938;28;19925;-68
2023/07/23 02:42:39;;;;;;;;;;;;;;;14.95;35.67;95036.25;5021923;28;19924;-68
2023/07/23 02:45:05;;;;;;;;;;;;;;;15.02;35.73;95046.13;5021204;28;19921;-68
2023/07/23 02:47:30;;;;;;;;;;;;;;;15.08;35.65;95039.84;5022202;28;19917;-68
2023/07/23 02:49:57;;;;;;;;;;;;;;;;;;5021386;28;19917;-67
2023/07/23 02:52:23;;;;;;;;;;;;;;;14.95;35.79;95040.78;5019099;28;19915;-67
2023/07/23 02:54:48;;;;;;;;;;;;;;;14.85;35.75;95041.28;5019503;28;20346;-67
2023/07/23 02:57:13;;;;;;;;;;;;;;;14.78;35.95;95038.66;5021340;28;19996;-67
2023/07/23 02:59:39;;;;;;;;;;;;;;;14.92;35.71;95039.38;5020072;28;20435;-69
2023/07/23 03:02:04;;;;;;;;;;;;;;;14.89;35.86;95039.81;5019330;28;19929;-68
2023/07/23 03:04:30;;;;;;;;;;;;;;;14.97;35.71;95036.88;5018728;28;20484;-67
2023/07/23 03:06:55;;;;;;;;;;;;;;;14.82;36.60;95026.47;5014152;28;19917;-67
2023/07/23 03:09:20;;;;;;;;;;;;;;;14.82;36.10;95034.50;5020974;28;20336;-67
2023/07/23 03:11:46;;;;;;;;;;;;;;;14.67;36.37;95031.31;5021383;28;19984;-68
2023/07/23 03:14:11;;;;;;;;;;;;;;;14.70;36.12;95030.88;5020787;28;19960;-68
2023/07/23 03:16:36;;;;;;;;;;;;;;;14.60;36.31;95031.38;5021284;28;19917;-67
2023/07/23 03:19:02;;;;;;;;;;;;;;;14.55;36.26;95026.66;5019019;28;19924;-68
2023/07/23 03:21:27;;;;;;;;;;;;;;;14.64;36.19;95023.72;5020609;28;20381;-68
2023/07/23 03:23:52;;;;;;;;;;;;;;;14.59;36.39;95019.03;5021168;28;19917;-67
2023/07/23 03:26:17;;;;;;;;;;;;;;;14.59;36.09;95017.16;5019283;28;19921;-66
2023/07/23 03:28:43;;;;;;;;;;;;;;;14.66;36.33;95014.44;5021120;28;19964;-68
2023/07/23 03:31:08;;;;;;;;;;;;;;;14.75;36.04;95020.34;5020572;28;19921;-67
2023/07/23 03:33:33;;;;;;;;;;;;;;;14.59;36.25;95021.69;5020908;28;19921;-68
2023/07/23 03:35:58;;;;;;;;;;;;;;;14.38;36.63;95010.31;5020115;28;20378;-68
2023/07/23 03:38:23;;;;;;;;;;;;;;;14.24;36.93;95017.59;5023046;28;19917;-67
2023/07/23 03:40:49;;;;;;;;;;;;;;;14.30;36.99;95015.94;5027306;28;19917;-67
2023/07/23 03:43:14;;;;;;;;;;;;;;;14.27;37.46;95014.50;5027483;28;19914;-69
2023/07/23 03:45:39;;;;;;;;;;;;;;;14.39;36.83;95019.16;5027558;28;19917;-68
2023/07/23 03:48:04;;;;;;;;;;;;;;;14.28;37.31;95021.50;5026682;28;19968;-67
2023/07/23 03:50:30;;;;;;;;;;;;;;;14.24;37.42;95022.16;5027336;28;19924;-66
2023/07/23 03:52:55;;;;;;;;;;;;;;;14.31;37.14;95013.03;5024225;28;19921;-68
2023/07/23 03:55:20;;;;;;;;;;;;;;;14.13;37.85;95019.13;5027635;28;19972;-68
2023/07/23 03:57:46;;;;;;;;;;;;;;;14.02;37.97;95015.28;5026874;28;19917;-68
2023/07/23 04:00:11;;;;;;;;;;;;;;;14.27;37.59;95017.19;5028531;28;20377;-67
2023/07/23 04:02:36;;;;;;;;;;;;;;;14.45;37.03;95011.06;5027459;28;19921;-67
2023/07/23 04:05:02;;;;;;;;;;;;;;;14.34;37.26;95009.94;5024671;28;19971;-67
2023/07/23 04:07:27;;;;;;;;;;;;;;;14.43;37.16;95007.81;5027280;28;20413;-67
2023/07/23 04:09:53;;;;;;;;;;;;;;;14.35;37.38;95008.09;5026998;28;19918;-68
2023/07/23 04:12:18;;;;;;;;;;;;;;;14.60;37.07;95017.97;5027153;28;20374;-67
2023/07/23 04:14:44;;;;;;;;;;;;;;;14.58;37.21;95012.84;5027057;28;20487;-68
2023/07/23 04:17:09;;;;;;;;;;;;;;;14.56;37.44;95014.94;5025372;28;19933;-68
2023/07/23 04:19:35;;;;;;;;;;;;;;;14.51;37.35;95014.75;5025712;28;19928;-68
2023/07/23 04:22:00;;;;;;;;;;;;;;;14.56;37.16;95017.59;5026589;28;19924;-67
2023/07/23 04:24:25;;;;;;;;;;;;;;;14.55;37.20;95013.28;5027153;28;19924;-68
2023/07/23 04:26:50;;;;;;;;;;;;;;;14.77;37.07;95012.94;5026847;28;20563;-67
2023/07/23 04:29:15;;;;;;;;;;;;;;;14.56;37.21;95014.94;5027254;28;20542;-68
2023/07/23 04:31:41;;;;;;;;;;;;;;;14.68;37.01;95017.69;5027280;28;19925;-67
2023/07/23 04:34:06;;;;;;;;;;;;;;;14.72;36.93;95016.22;5026382;28;19925;-67
2023/07/23 04:36:31;;;;;;;;;;;;;;;14.83;36.77;95016.59;5023909;28;20432;-67
2023/07/23 04:38:56;;;;;;;;;;;;;;;14.81;36.70;95019.47;5026749;28;20012;-68
2023/07/23 04:41:22;;;;;;;;;;;;;;;14.84;36.64;95013.69;5026554;28;20283;-68
2023/07/23 04:43:47;;;;;;;;;;;;;;;14.94;36.60;95015.03;5027081;28;19921;-67
2023/07/23 04:46:12;;;;;;;;;;;;;;;14.97;36.58;95020.78;5026224;28;19992;-66
2023/07/23 04:48:38;;;;;;;;;;;;;;;15.10;36.49;95014.47;5027169;28;19913;-67
2023/07/23 04:51:03;;;;;;;;;;;;;;;15.34;36.08;95014.63;5021847;28;19917;-68
2023/07/23 04:53:29;;;;;;;;;;;;;;;15.06;36.42;95012.47;5020518;28;20344;-68
2023/07/23 04:55:54;;;;;;;;;;;;;;;15.22;36.21;95022.59;5023593;28;19917;-68
2023/07/23 04:58:19;;;;;;;;;;;;;;;15.28;36.10;95012.84;5023199;28;19983;-67
2023/07/23 05:00:45;;;;;;;;;;;;;;;15.18;36.24;95013.38;5023803;28;19921;-68
2023/07/23 05:03:11;;;;;;;;;;;;;;;15.44;35.95;95010.63;5023418;28;20430;-67
2023/07/23 05:05:37;;;;;;;;;;;;;;;15.54;35.76;95015.44;5022677;28;20405;-67
2023/07/23 05:08:02;;;;;;;;;;;;;;;15.48;35.45;95015.31;5023434;28;19960;-67
2023/07/23 05:10:27;;;;;;;;;;;;;;;15.49;35.93;95010.75;5022666;28;19925;-68
2023/07/23 05:12:52;;;;;;;;;;;;;;;15.58;35.75;95014.81;5023117;28;19928;-67
2023/07/23 05:15:17;;;;;;;;;;;;;;;15.54;36.00;95010.09;5022575;28;19931;-67
2023/07/23 05:17:43;;;;;;;;;;;;;;;15.67;35.80;95001.91;5020688;28;19967;-67
2023/07/23 05:20:08;;;;;;;;;;;;;;;15.86;35.56;95001.88;5023381;28;19928;-68
2023/07/23 05:22:37;;;;;;;;;;;;;;;15.94;35.41;94995.38;5022924;28;20555;-68
2023/07/23 05:25:03;;;;;;;;;;;;;;;15.95;35.04;94992.44;5023046;28;19921;-67
2023/07/23 05:27:28;;;;;;;;;;;;;;;16.12;35.08;94991.81;5023502;28;20171;-68
2023/07/23 05:29:53;;;;;;;;;;;;;;;16.03;34.73;94998.53;5022698;28;19924;-67
2023/07/23 05:32:19;;;;;;;;;;;;;;;16.29;35.01;94996.53;5022938;28;19913;-67
2023/07/23 05:34:44;;;;;;;;;;;;;;;16.33;34.85;94997.72;5022407;28;19921;-68
2023/07/23 05:37:09;;;;;;;;;;;;;;;16.15;34.98;95001.28;5022707;28;20343;-67
2023/07/23 05:39:34;;;;;;;;;;;;;;;16.32;35.20;94996.06;5023315;28;19917;-69
2023/07/23 05:42:00;;;;;;;;;;;;;;;16.34;34.80;94994.78;5022702;28;19968;-68
2023/07/23 05:44:25;;;;;;;;;;;;;;;16.41;34.51;94991.22;5037992;28;20008;-67
2023/07/23 05:46:50;;;;;;;;;;;;;;;14.33;38.92;94999.44;5022452;28;20397;-67
2023/07/23 05:49:16;;;;;;;;;;;;;;;15.43;36.57;94993.69;5021633;28;20366;-67
2023/07/23 05:51:42;;;;;;;;;;;;;;;15.82;36.09;94981.91;5019261;28;19921;-68
2023/07/23 05:54:07;;;;;;;;;;;;;;;16.23;35.76;94991.03;5022525;28;19951;-67
2023/07/23 05:56:32;;;;;;;;;;;;;;;15.95;36.04;94986.28;5022497;28;19929;-68
2023/07/23 05:58:57;;;;;;;;;;;;;;;16.41;35.04;94986.66;5022499;28;19956;-68
2023/07/23 06:01:22;;;;;;;;;;;;;;;16.45;35.07;94982.47;5021064;28;19928;-68
2023/07/23 06:03:48;;;;;;;;;;;;;;;16.67;34.93;94979.22;5022484;28;19975;-67
2023/07/23 06:06:13;;;;;;;;;;;;;;;16.89;34.75;94978.63;5021722;28;19956;-67
2023/07/23 06:08:38;;;;;;;;;;;;;;;15.96;36.15;94971.81;5022802;28;19917;-68
2023/07/23 06:11:03;;;;;;;;;;;;;;;16.57;35.73;94973.59;5021988;28;20310;-67
2023/07/23 06:13:29;;;;;;;;;;;;;;;16.95;34.69;94969.63;5022347;28;19917;-68
2023/07/23 06:15:54;;;;;;;;;;;;;;;15.74;37.06;94975.00;5021822;28;19933;-67
2023/07/23 06:18:19;;;;;;;;;;;;;;;16.52;35.82;94977.81;5020941;28;20578;-69
2023/07/23 06:20:44;;;;;;;;;;;;;;;15.21;38.47;94990.66;5019962;28;19921;-67
2023/07/23 06:23:10;;;;;;;;;;;;;;;16.29;36.35;94975.88;5021131;28;19964;-68
2023/07/23 06:25:35;;;;;;;;;;;;;;;16.78;35.77;94977.59;5021785;28;20553;-67
2023/07/23 06:28:00;;;;;;;;;;;;;;;16.79;35.72;94981.09;5022138;28;20577;-68
2023/07/23 06:30:25;;;;;;;;;;;;;;;16.39;36.70;94968.09;5020268;28;19936;-68
2023/07/23 06:32:51;;;;;;;;;;;;;;;16.47;36.27;94985.75;5022232;28;19927;-68
2023/07/23 06:35:16;;;;;;;;;;;;;;;15.50;38.46;94977.50;5020467;28;19932;-68
2023/07/23 06:37:41;;;;;;;;;;;;;;;16.54;36.72;94976.75;5021144;28;19929;-69
2023/07/23 06:40:07;;;;;;;;;;;;;;;17.18;35.50;94973.41;5021686;28;19960;-67
2023/07/23 06:42:32;;;;;;;;;;;;;;;16.77;35.92;94968.69;5021613;28;19921;-67
2023/07/23 06:44:57;;;;;;;;;;;;;;;17.16;36.01;94967.41;5020678;28;20044;-68
2023/07/23 06:47:22;;;;;;;;;;;;;;;15.35;39.47;94970.69;5021596;28;19920;-68
2023/07/23 06:49:48;;;;;;;;;;;;;;;15.48;39.52;94950.94;5021018;28;19929;-67
2023/07/23 06:52:13;;;;;;;;;;;;;;;16.12;38.30;94964.97;5018429;28;19917;-67
2023/07/23 06:54:42;;;;;;;;;;;;;;;15.77;38.35;94958.44;5021233;28;19957;-67
2023/07/23 06:57:07;;;;;;;;;;;;;;;15.79;38.98;94960.88;5022802;28;20523;-67
2023/07/23 06:59:32;;;;;;;;;;;;;;;16.58;37.72;94965.31;5021190;28;20004;-67
2023/07/23 07:01:58;;;;;;;;;;;;;;;16.65;37.60;94973.25;5021294;28;19921;-68
2023/07/23 07:04:23;;;;;;;;;;;;;;;16.44;37.16;94980.81;5019852;28;19944;-67
2023/07/23 07:06:48;;;;;;;;;;;;;;;14.38;41.38;94975.50;5019772;28;19999;-69
2023/07/23 07:09:13;;;;;;;;;;;;;;;15.41;39.95;94966.28;5021034;28;19925;-67
2023/07/23 07:11:39;;;;;;;;;;;;;;;15.07;40.18;94957.81;5021484;28;19957;-67
2023/07/23 07:14:04;;;;;;;;;;;;;;;14.97;40.66;94982.44;5020692;28;19917;-68
2023/07/23 07:16:29;;;;;;;;;;;;;;;14.82;40.95;94994.31;5020944;28;20029;-66
2023/07/23 07:18:55;;;;;;;;;;;;;;;14.64;41.50;94975.50;5020857;28;19928;-67
2023/07/23 07:21:20;;;;;;;;;;;;;;;15.32;40.04;94973.00;5020457;28;19975;-68
2023/07/23 07:23:47;;;;;;;;;;;;;;;15.27;40.26;94980.91;5020377;28;20423;-68
2023/07/23 07:26:12;;;;;;;;;;;;;;;14.74;41.27;94969.66;5020571;28;20018;-67
2023/07/23 07:28:38;;;;;;;;;;;;;;;14.79;40.98;94972.53;5021189;28;19975;-68
2023/07/23 07:31:03;;;;;;;;;;;;;;;14.93;40.52;94981.25;5020046;28;19932;-67
2023/07/23 07:33:28;;;;;;;;;;;;;;;15.21;39.77;94974.56;5020791;28;19917;-68
2023/07/23 07:35:57;;;;;;;;;;;;;;;14.74;40.85;94967.81;5020684;28;19932;-68
2023/07/23 07:38:23;;;;;;;;;;;;;;;14.84;40.33;94980.69;5018073;28;20676;-68
2023/07/23 07:40:51;;;;;;;;;;;;;;;13.79;41.97;94965.78;5020683;28;19918;-67
2023/07/23 07:43:16;;;;;;;;;;;;;;;13.02;44.82;94964.63;5021039;28;19939;-67
2023/07/23 07:45:41;;;;;;;;;;;;;;;13.92;42.89;94948.03;5020369;28;19967;-67
2023/07/23 07:48:09;;;;;;;;;;;;;;;14.95;40.47;94957.72;5020970;28;20386;-67
2023/07/23 07:50:34;;;;;;;;;;;;;;;15.27;39.44;94972.84;5013957;28;19921;-68
2023/07/23 07:52:59;;;;;;;;;;;;;;;15.29;39.31;94973.44;5020458;28;19921;-67
2023/07/23 07:55:24;;;;;;;;;;;;;;;15.37;39.46;94970.47;5020870;28;20269;-67
2023/07/23 07:57:50;;;;;;;;;;;;;;;14.51;40.80;94966.53;5019490;28;19929;-67
2023/07/23 08:00:15;;;;;;;;;;;;;;;14.81;39.96;94957.03;5019457;28;19932;-68
2023/07/23 08:02:41;;;;;;;;;;;;;;;14.84;39.81;94961.94;5020327;28;19929;-67
2023/07/23 08:05:06;;;;;;;;;;;;;;;14.16;41.10;94965.16;5017044;28;19933;-67
2023/07/23 08:07:32;;;;;;;;;;;;;;;15.01;39.66;94966.72;5019945;28;20147;-67
2023/07/23 08:09:58;;;;;;;;;;;;;;;12.98;44.08;94975.94;5020702;28;20032;-68
2023/07/23 08:12:23;;;;;;;;;;;;;;;14.91;39.78;94977.97;5020157;28;19925;-67
2023/07/23 08:14:48;;;;;;;;;;;;;;;15.09;39.13;94979.81;5019783;28;20573;-67
2023/07/23 08:17:14;;;;;;;;;;;;;;;14.11;40.74;94989.06;5019174;28;19932;-68
2023/07/23 08:19:39;;;;;;;;;;;;;;;14.15;39.94;94978.75;5020548;28;19968;-69
2023/07/23 08:22:05;;;;;;;;;;;;;;;14.41;39.78;94979.63;5019879;28;19917;-68
2023/07/23 08:24:30;;;;;;;;;;;;;;;14.50;42.08;94982.81;5020327;28;19917;-67
2023/07/23 08:26:56;;;;;;;;;;;;;;;13.73;40.75;94961.28;5023256;28;20297;-68
2023/07/23 08:29:21;;;;;;;;;;;;;;;12.75;43.70;94980.69;5018434;28;19955;-68
2023/07/23 08:31:46;;;;;;;;;;;;;;;13.76;42.80;95006.31;5022935;28;20452;-67
2023/07/23 08:34:12;;;;;;;;;;;;;;;13.63;42.13;94985.00;5022686;28;19943;-67
2023/07/23 08:36:37;;;;;;;;;;;;;;;14.11;43.64;94982.91;5023828;28;19979;-67
2023/07/23 08:39:04;;;;;;;;;;;;;;;14.39;42.03;94984.34;5023725;28;19957;-67
2023/07/23 08:41:45;;;;;;;;;;;;;;;13.51;42.46;94998.22;5023719;28;19927;-66
2023/07/23 08:44:15;;;;;;;;;;;;;;;13.90;42.43;95008.97;5024235;28;19939;-68
2023/07/23 08:46:44;;;;;;;;;;;;;;;14.16;42.10;95005.31;5023816;28;19917;-67
2023/07/23 08:49:11;;;;;;;;;;;;;;;13.88;43.28;95009.19;5022579;28;19920;-68
2023/07/23 08:51:46;;;;;;;;;;;;;;;14.15;45.42;95003.69;5020214;28;19918;-67
2023/07/23 08:54:11;;;;;;;;;;;;;;;13.98;43.84;95002.53;5020841;28;19928;-67
2023/07/23 08:56:37;;;;;;;;;;;;;;;13.63;44.27;95007.19;5023406;28;19921;-69
2023/07/23 08:59:02;;;;;;;;;;;;;;;13.30;46.31;95024.19;5023675;28;19925;-68
2023/07/23 09:01:28;;;;;;;;;;;;;;;13.67;45.30;95016.44;5021797;28;19921;-68
2023/07/23 09:03:53;;;;;;;;;;;;;;;14.76;43.51;95013.16;5023099;28;19928;-67
2023/07/23 09:06:19;;;;;;;;;;;;;;;15.34;42.28;95017.31;5020622;28;19933;-68
2023/07/23 09:08:44;;;;;;;;;;;;;;;14.50;43.84;95023.00;5023846;28;19921;-68
2023/07/23 09:11:10;;;;;;;;;;;;;;;14.11;44.33;95013.16;5023481;28;19921;-66
2023/07/23 09:13:36;;;;;;;;;;;;;;;15.48;42.12;95015.31;5022133;28;19917;-67
2023/07/23 09:16:01;;;;;;;;;;;;;;;15.41;42.14;95019.09;5023809;28;19952;-69
2023/07/23 09:18:26;;;;;;;;;;;;;;;14.52;44.41;95018.25;5023163;28;19949;-67
2023/07/23 09:20:52;;;;;;;;;;;;;;;15.39;40.97;95027.38;5022978;28;19925;-67
2023/07/23 09:23:17;;;;;;;;;;;;;;;15.68;40.23;95022.34;5023962;28;20400;-67
2023/07/23 09:25:44;;;;;;;;;;;;;;;15.71;40.34;95003.09;5023477;28;20393;-67
2023/07/23 09:28:15;;;;;;;;;;;;;;;14.95;42.88;95014.81;5022322;28;20389;-67
2023/07/23 09:30:43;;;;;;;;;;;;;;;16.13;40.26;95001.50;5021505;28;20471;-68
2023/07/23 09:33:08;;;;;;;;;;;;;;;16.66;38.45;95007.16;5021621;28;19913;-67
2023/07/23 09:35:34;;;;;;;;;;;;;;;16.22;40.11;94996.63;5003687;28;19928;-68
2023/07/23 09:37:59;;;;;;;;;;;;;;;15.91;40.13;94993.94;5022962;28;19925;-68
2023/07/23 09:40:37;;;;;;;;;;;;;;;15.98;41.78;94996.56;5022548;28;19975;-68
2023/07/23 09:43:02;;;;;;;;;;;;;;;15.68;40.70;95008.09;5021703;28;20333;-67
2023/07/23 09:45:30;;;;;;;;;;;;;;;15.79;40.83;94979.66;5022998;28;20008;-67
2023/07/23 09:48:00;;;;;;;;;;;;;;;15.91;41.26;95012.75;5023004;28;20374;-68
2023/07/23 09:50:25;;;;;;;;;;;;;;;16.10;40.88;95010.84;5022539;28;19924;-66
2023/07/23 09:52:50;;;;;;;;;;;;;;;15.34;41.22;95019.19;5021024;28;19917;-67
2023/07/23 09:55:16;;;;;;;;;;;;;;;14.18;44.16;95023.84;5022674;28;20015;-68
2023/07/23 09:57:41;;;;;;;;;;;;;;;12.76;47.05;95034.94;5020984;28;19925;-67
2023/07/23 10:00:07;;;;;;;;;;;;;;;13.73;45.03;95024.66;5022474;28;20646;-68
2023/07/23 10:02:33;;;;;;;;;;;;;;;14.72;45.42;95026.94;5022609;28;20021;-67
2023/07/23 10:04:58;;;;;;;;;;;;;;;14.33;44.62;95027.03;5017591;28;19971;-67
2023/07/23 10:07:23;;;;;;;;;;;;;;;12.70;48.84;95035.75;5020565;28;19913;-68
2023/07/23 10:09:49;;;;;;;;;;;;;;;13.95;46.86;95026.00;5022129;28;19979;-67
2023/07/23 10:12:14;;;;;;;;;;;;;;;14.57;45.58;95031.81;5020448;28;20378;-67
2023/07/23 10:14:39;;;;;;;;;;;;;;;14.44;45.05;95030.88;5020967;28;19917;-67
2023/07/23 10:17:05;;;;;;;;;;;;;;;15.57;44.30;95042.66;5022208;28;20548;-67
2023/07/23 10:19:30;;;;;;;;;;;;;;;15.26;42.96;95043.63;5019301;28;19917;-67
2023/07/23 10:21:55;;;;;;;;;;;;;;;13.52;48.04;95038.09;5017676;28;19921;-67
2023/07/23 10:24:21;;;;;;;;;;;;;;;13.42;47.97;95033.22;5022332;28;20524;-68
2023/07/23 10:26:46;;;;;;;;;;;;;;;15.13;46.14;95028.47;5020653;28;19925;-68
2023/07/23 10:29:13;;;;;;;;;;;;;;;15.72;43.78;95036.13;5019826;28;19921;-67
2023/07/23 10:31:38;;;;;;;;;;;;;;;15.73;43.37;95037.75;5019179;28;19960;-68
2023/07/23 10:34:22;;;;;;;;;;;;;;;15.36;44.22;95031.31;5014111;28;19976;-67
2023/07/23 10:37:06;;;;;;;;;;;;;;;15.38;44.12;95023.06;5022774;28;19928;-67
2023/07/23 10:39:37;;;;;;;;;;;;;;;15.52;42.17;95020.22;5020870;28;20285;-67
2023/07/23 10:42:03;;;;;;;;;;;;;;;15.58;42.12;95019.34;5020193;28;20001;-68
2023/07/23 10:44:28;;;;;;;;;;;;;;;15.36;42.69;95028.63;5021789;28;19924;-68
2023/07/23 10:46:55;;;;;;;;;;;;;;;14.88;43.77;95016.75;5021229;28;19929;-67
2023/07/23 10:49:22;;;;;;;;;;;;;;;16.21;41.66;95021.84;5015640;28;19921;-68
2023/07/23 10:51:50;;;;;;;;;;;;;;;15.80;42.48;95022.38;5020151;28;19955;-67
2023/07/23 10:54:15;;;;;;;;;;;;;;;15.64;42.67;95029.19;5021279;28;20567;-67
2023/07/23 10:56:41;;;;;;;;;;;;;;;15.42;43.15;95021.56;5021563;28;20016;-67
2023/07/23 10:59:07;;;;;;;;;;;;;;;16.04;40.72;95021.69;5016723;28;20631;-68
2023/07/23 11:01:37;;;;;;;;;;;;;;;17.00;39.08;95011.97;5021175;28;19978;-69
2023/07/23 11:04:23;;;;;;;;;;;;;;;16.68;39.31;95007.72;5021019;28;19979;-67
2023/07/23 11:06:58;;;;;;;;;;;;;;;16.51;40.79;95016.47;5018084;28;20487;-68
2023/07/23 11:09:27;;;;;;;;;;;;;;;17.22;38.61;95020.28;5021168;28;19971;-68
2023/07/23 11:11:53;;;;;;;;;;;;;;;16.88;38.31;95020.84;5021063;28;20341;-68
2023/07/23 11:14:19;;;;;;;;;;;;;;;16.21;40.60;95022.66;5019539;28;19928;-67
2023/07/23 11:16:49;;;;;;;;;;;;;;;17.10;40.11;95022.13;5019086;28;19937;-68
2023/07/23 11:19:15;;;;;;;;;;;;;;;17.45;38.35;95023.16;5011851;28;19928;-67
2023/07/23 11:21:47;;;;;;;;;;;;;;;17.41;38.92;95017.47;5018741;28;19928;-67
2023/07/23 11:24:13;;;;;;;;;;;;;;;16.72;40.75;95027.72;5018994;28;20068;-68
2023/07/23 11:26:38;;;;;;;;;;;;;;;17.14;39.05;95031.41;5020624;28;20418;-67
2023/07/23 11:29:06;;;;;;;;;;;;;;;16.84;39.40;95033.13;5018277;28;20007;-68
2023/07/23 11:31:31;;;;;;;;;;;;;;;16.96;40.23;95027.72;5018411;28;19951;-67
2023/07/23 11:33:58;;;;;;;;;;;;;;;15.41;43.19;95030.66;5020015;28;20529;-68
2023/07/23 11:36:23;;;;;;;;;;;;;;;16.04;41.55;95017.09;5017126;28;20511;-68
2023/07/23 11:38:54;;;;;;;;;;;;;;;15.95;41.39;95015.81;5019909;28;19968;-68
2023/07/23 11:41:26;;;;;;;;;;;;;;;15.09;42.75;95017.34;5018956;28;19921;-69
2023/07/23 11:43:51;;;;;;;;;;;;;;;15.97;41.91;95016.38;5016889;28;20186;-69
2023/07/23 11:46:17;;;;;;;;;;;;;;;16.97;39.85;95018.63;5020771;28;19978;-69
2023/07/23 11:48:42;;;;;;;;;;;;;;;16.63;40.15;95018.34;5020690;28;20189;-69
2023/07/23 11:51:07;;;;;;;;;;;;;;;17.25;38.16;95014.44;5019127;28;19917;-68
2023/07/23 11:53:33;;;;;;;;;;;;;;;17.58;37.76;95016.72;5020338;28;19921;-69
2023/07/23 11:56:05;;;;;;;;;;;;;;;17.72;38.27;95012.72;5021078;28;20385;-69
2023/07/23 11:58:31;;;;;;;;;;;;;;;17.66;37.48;95014.47;5020300;28;19924;-69
2023/07/23 12:00:56;;;;;;;;;;;;;;;17.62;38.18;95010.63;5023824;28;19917;-68
2023/07/23 12:03:21;;;;;;;;;;;;;;;18.01;37.65;95004.66;5024355;28;20582;-68
2023/07/23 12:05:47;;;;;;;;;;;;;;;18.08;37.28;95003.72;5020629;28;20153;-68
2023/07/23 12:08:12;;;;;;;;;;;;;;;17.07;38.22;94998.38;5023729;28;20420;-69
2023/07/23 12:10:37;;;;;;;;;;;;;;;17.48;38.82;95002.00;5024305;28;19917;-69
2023/07/23 12:13:12;;;;;;;;;;;;;;;17.60;38.64;94996.56;5024111;28;19917;-69
2023/07/23 12:15:37;;;;;;;;;;;;;;;18.43;36.35;94989.22;5024644;28;20508;-69
2023/07/23 12:18:03;;;;;;;;;;;;;;;18.89;36.04;94997.25;5023900;28;19924;-69
2023/07/23 12:20:28;;;;;;;;;;;;;;;18.56;35.52;94988.09;5023292;28;19928;-69
2023/07/23 12:22:54;;;;;;;;;;;;;;;18.80;36.29;94996.06;5024584;28;19929;-69
2023/07/23 12:25:19;;;;;;;;;;;;;;;17.59;38.44;94996.81;5023841;28;19928;-69
2023/07/23 12:27:45;;;;;;;;;;;;;;;19.02;35.60;94990.72;5024563;28;19913;-69
2023/07/23 12:30:10;;;;;;;;;;;;;;;19.74;34.62;94994.63;5022908;28;20463;-69
2023/07/23 12:32:35;;;;;;;;;;;;;;;19.83;33.92;95007.44;5024140;28;20003;-68
2023/07/23 12:35:01;;;;;;;;;;;;;;;19.10;34.93;94992.16;5023223;28;19933;-69
2023/07/23 12:37:26;;;;;;;;;;;;;;;18.41;35.72;94997.56;5023585;28;20016;-69
2023/07/23 12:39:53;;;;;;;;;;;;;;;19.32;35.33;95000.34;5023328;28;19917;-68
2023/07/23 12:42:18;;;;;;;;;;;;;;;18.94;35.66;95004.63;5023214;28;20388;-68